Panther Z — SVA6026 — position and weather

sailwx.info

Track history (hours):
 
Tides and Currents Weather Stations Pressure Air Temp Water Temp Dewpoint Dewpoint Depression Visibility Wind Speed Wind Dir Waves Ship Positions

Panther Z

Last reported at 2017-Sep-21 05:00 UTC. Time now 2017-Sep-21 05:28 UTC.
Position N 37°57' E 023°37'.

Length 30 m; draft 4 m.

Type: Tug. MMSI: 239842700.

Date/timePositionNaut miles runAvg speedWind from/ knotsBaromVisibWave heightAir tempDewpointWater temp
2017-Sep-21 05:00N 37°57' E 023°37'0 0.0
2017-Sep-21 04:30N 37°57' E 023°37'0 0.0
2017-Sep-21 04:00N 37°57' E 023°37'0 0.0
2017-Sep-21 03:30N 37°57' E 023°37'0 0.0
2017-Sep-21 03:00N 37°57' E 023°37'0 0.0
2017-Sep-21 02:30N 37°57' E 023°37'0 0.0
2017-Sep-21 02:01N 37°57' E 023°37'3 6.7
2017-Sep-21 01:30N 37°59' E 023°33'1 2.8
2017-Sep-21 01:01N 37°60' E 023°34'1 2.0
2017-Sep-21 00:30N 37°59' E 023°33'2 3.1
2017-Sep-21 00:00N 37°58' E 023°34'0 0.0
2017-Sep-20 23:30N 37°58' E 023°34'1 2.5
2017-Sep-20 23:00N 37°57' E 023°35'0 0.5
2017-Sep-20 22:30N 37°57' E 023°35'1 2.4
2017-Sep-20 22:00N 37°57' E 023°34'0 0.0
2017-Sep-20 21:30N 37°57' E 023°34'0 0.0
2017-Sep-20 21:00N 37°57' E 023°34'0 0.0
2017-Sep-20 20:30N 37°57' E 023°34'0 0.0
2017-Sep-20 20:00N 37°58' E 023°34'0 0.0
2017-Sep-20 19:30N 37°57' E 023°34'0 0.0
2017-Sep-20 19:00N 37°58' E 023°34'0 0.0
2017-Sep-20 18:30N 37°57' E 023°34'0 0.0
2017-Sep-20 18:00N 37°57' E 023°34'0 0.0
2017-Sep-20 17:30N 37°58' E 023°34'0 0.1
2017-Sep-20 17:01N 37°58' E 023°34'1 1.8
2017-Sep-20 16:30N 37°57' E 023°35'1 2.6
2017-Sep-20 16:00N 37°57' E 023°36'0 0.0
2017-Sep-20 15:30N 37°57' E 023°36'0 0.0
2017-Sep-20 15:00N 37°57' E 023°36'0 0.0
2017-Sep-20 14:00N 37°57' E 023°36'0 0.0
2017-Sep-20 13:30N 37°57' E 023°36'0 0.0
2017-Sep-20 13:00N 37°57' E 023°36'1 1.3
2017-Sep-20 12:30N 37°57' E 023°37'0 0.0
2017-Sep-20 12:00N 37°57' E 023°37'0 0.0
2017-Sep-20 11:30N 37°57' E 023°37'0 0.0
2017-Sep-20 11:00N 37°57' E 023°37'0 0.0
2017-Sep-20 10:30N 37°57' E 023°37'0 0.0
2017-Sep-20 10:00N 37°57' E 023°37'0 0.0
2017-Sep-20 09:30N 37°58' E 023°37'0 0.0
2017-Sep-20 09:00N 37°57' E 023°37'0 0.0
2017-Sep-20 08:30N 37°57' E 023°37'0 0.0
2017-Sep-20 08:00N 37°57' E 023°37'0 0.0
2017-Sep-20 07:30N 37°57' E 023°37'0 0.0
2017-Sep-20 07:00N 37°57' E 023°37'0 0.0
2017-Sep-20 06:30N 37°57' E 023°37'0 0.0
2017-Sep-20 06:00N 37°57' E 023°37'0 0.0
2017-Sep-20 05:30N 37°57' E 023°37'0 0.0
2017-Sep-20 05:00N 37°57' E 023°37'0 0.0
2017-Sep-20 04:30N 37°57' E 023°37'0 0.0
2017-Sep-20 04:00N 37°57' E 023°37'0 0.0
2017-Sep-20 03:30N 37°57' E 023°37'0 0.0
2017-Sep-20 03:00N 37°57' E 023°37'0 0.0
2017-Sep-20 02:30N 37°57' E 023°37'0 0.0
2017-Sep-20 02:00N 37°57' E 023°37'0 0.0
2017-Sep-20 01:30N 37°57' E 023°37'0 0.0
2017-Sep-20 01:00N 37°57' E 023°37'0 0.0
2017-Sep-20 00:30N 37°57' E 023°37'0 0.0
2017-Sep-20 00:00N 37°57' E 023°37'0 0.0
2017-Sep-19 23:30N 37°57' E 023°37'0 0.0
2017-Sep-19 23:00N 37°57' E 023°37'0 0.0
2017-Sep-19 22:30N 37°57' E 023°37'1 2.5
2017-Sep-19 22:00N 37°57' E 023°35'1 2.5
2017-Sep-19 21:30N 37°56' E 023°36'0 0.1
2017-Sep-19 21:00N 37°56' E 023°36'1 1.3
2017-Sep-19 20:30N 37°57' E 023°36'0 0.0
2017-Sep-19 20:00N 37°57' E 023°36'0 0.0
2017-Sep-19 19:30N 37°57' E 023°36'0 0.0
2017-Sep-19 19:00N 37°57' E 023°36'0 0.0
2017-Sep-19 18:30N 37°57' E 023°36'0 0.0
2017-Sep-19 18:00N 37°57' E 023°36'0 0.0
2017-Sep-19 17:30N 37°57' E 023°36'0 0.0
2017-Sep-19 17:00N 37°57' E 023°36'1 1.6
2017-Sep-19 16:30N 37°56' E 023°37'1 2.3
2017-Sep-19 16:00N 37°56' E 023°38'1 2.5
2017-Sep-19 15:30N 37°56' E 023°37'5 9.0
2017-Sep-19 15:00N 37°60' E 023°33'2 4.2
2017-Sep-19 14:31N 38°02' E 023°33'0 0.7
2017-Sep-19 14:00N 38°02' E 023°32'0 0.0
2017-Sep-19 13:30N 38°02' E 023°32'1 2.0
2017-Sep-19 13:00N 38°01' E 023°33'4 8.6
2017-Sep-19 12:30N 37°57' E 023°35'2 3.3
2017-Sep-19 12:00N 37°58' E 023°37'0 0.0
2017-Sep-19 11:30N 37°57' E 023°37'0 0.0
2017-Sep-19 11:00N 37°57' E 023°37'0 0.0
2017-Sep-19 10:30N 37°57' E 023°37'0 0.0
2017-Sep-19 10:00N 37°57' E 023°37'0 0.0
2017-Sep-19 09:30N 37°58' E 023°37'0 0.0
2017-Sep-19 09:00N 37°57' E 023°37'0 0.0
2017-Sep-19 08:30N 37°57' E 023°37'0 0.0
2017-Sep-19 08:00N 37°57' E 023°37'0 0.0
2017-Sep-19 07:30N 37°57' E 023°37'0 0.0
2017-Sep-19 07:00N 37°57' E 023°37'0 0.0
2017-Sep-19 06:30N 37°57' E 023°37'0 0.0
2017-Sep-19 06:00N 37°58' E 023°37'0 0.0
2017-Sep-19 05:30N 37°57' E 023°37'0 0.0
2017-Sep-19 05:00N 37°57' E 023°37'0 0.0
2017-Sep-19 04:30N 37°57' E 023°37'0 0.0
2017-Sep-19 04:00N 37°57' E 023°37'0 0.0
2017-Sep-19 03:30N 37°57' E 023°37'0 0.0
2017-Sep-19 03:00N 37°57' E 023°37'0 0.0
2017-Sep-19 02:30N 37°57' E 023°37'0 0.0
2017-Sep-19 02:00N 37°58' E 023°37'0 0.0
2017-Sep-19 01:30N 37°57' E 023°37'0 0.0
2017-Sep-19 01:00N 37°57' E 023°37'0 0.0
2017-Sep-19 00:30N 37°57' E 023°37'0 0.0
2017-Sep-19 00:00N 37°57' E 023°37'0 0.0
2017-Sep-18 23:30N 37°58' E 023°37'0 0.0
2017-Sep-18 23:00N 37°57' E 023°37'0 0.0
2017-Sep-18 22:30N 37°57' E 023°37'0 0.0
2017-Sep-18 22:00N 37°57' E 023°37'0 0.0
2017-Sep-18 21:30N 37°57' E 023°37'0 0.0
2017-Sep-18 21:00N 37°57' E 023°37'0 0.0
2017-Sep-18 20:30N 37°57' E 023°37'0 0.0
2017-Sep-18 20:00N 37°57' E 023°37'0 0.0
2017-Sep-18 19:30N 37°57' E 023°37'0 0.0
2017-Sep-18 19:00N 37°57' E 023°37'0 0.0
2017-Sep-18 18:30N 37°57' E 023°37'0 0.0
2017-Sep-18 18:00N 37°57' E 023°37'0 0.0
2017-Sep-18 17:30N 37°57' E 023°37'0 0.0
2017-Sep-18 17:00N 37°57' E 023°37'1 2.6
2017-Sep-18 16:30N 37°56' E 023°37'1 1.1
2017-Sep-18 16:00N 37°56' E 023°38'0 0.0
2017-Sep-18 15:30N 37°56' E 023°38'0 0.0
2017-Sep-18 15:00N 37°56' E 023°38'2 3.9
2017-Sep-18 14:30N 37°57' E 023°36'1 1.6
2017-Sep-18 14:00N 37°57' E 023°37'0 0.0
2017-Sep-18 13:30N 37°57' E 023°37'0 0.0
2017-Sep-18 13:00N 37°57' E 023°37'0 0.0
2017-Sep-18 12:30N 37°57' E 023°37'0 0.0
2017-Sep-18 12:00N 37°57' E 023°37'0 0.0
2017-Sep-18 11:30N 37°57' E 023°37'0 0.0
2017-Sep-18 11:00N 37°57' E 023°37'0 0.0
2017-Sep-18 10:30N 37°57' E 023°37'0 0.0
2017-Sep-18 10:00N 37°57' E 023°37'0 0.0
2017-Sep-18 09:30N 37°57' E 023°37'0 0.0
2017-Sep-18 09:00N 37°57' E 023°37'0 0.0
2017-Sep-18 08:30N 37°57' E 023°37'0 0.0
2017-Sep-18 08:00N 37°57' E 023°37'0 0.0
2017-Sep-18 07:30N 37°57' E 023°37'0 0.0
2017-Sep-18 07:00N 37°57' E 023°37'0 0.0
2017-Sep-18 06:30N 37°58' E 023°37'0 0.0
2017-Sep-18 06:00N 37°58' E 023°37'0 0.0
2017-Sep-18 05:30N 37°57' E 023°37'0 0.0
2017-Sep-18 05:00N 37°57' E 023°37'0 0.0
2017-Sep-18 04:30N 37°57' E 023°37'0 0.0
2017-Sep-18 04:00N 37°57' E 023°37'0 0.0
2017-Sep-18 03:30N 37°57' E 023°37'0 0.0
2017-Sep-18 03:00N 37°57' E 023°37'0 0.0
2017-Sep-18 02:30N 37°57' E 023°37'0 0.0
2017-Sep-18 02:00N 37°57' E 023°37'0 0.0
2017-Sep-18 01:30N 37°57' E 023°37'0 0.0
2017-Sep-18 01:00N 37°57' E 023°37'0 0.0
2017-Sep-18 00:30N 37°58' E 023°37'0 0.0
2017-Sep-18 00:00N 37°57' E 023°37'0 0.0
2017-Sep-17 23:30N 37°57' E 023°37'0 0.0
2017-Sep-17 23:00N 37°57' E 023°37'0 0.0
2017-Sep-17 22:30N 37°57' E 023°37'0 0.0
2017-Sep-17 22:00N 37°57' E 023°37'0 0.0
2017-Sep-17 21:30N 37°57' E 023°37'0 0.0
2017-Sep-17 21:00N 37°57' E 023°37'0 0.0
2017-Sep-17 20:30N 37°57' E 023°37'0 0.0
2017-Sep-17 20:00N 37°57' E 023°37'0 0.0
2017-Sep-17 19:30N 37°57' E 023°37'0 0.0
2017-Sep-17 19:00N 37°58' E 023°37'0 0.0
2017-Sep-17 18:30N 37°57' E 023°37'0 0.0
2017-Sep-17 18:00N 37°57' E 023°37'0 0.0
2017-Sep-17 17:30N 37°57' E 023°37'0 0.0
2017-Sep-17 17:00N 37°57' E 023°37'0 0.0
2017-Sep-17 16:30N 37°57' E 023°37'0 0.0
2017-Sep-17 16:00N 37°57' E 023°37'0 0.0
2017-Sep-17 15:30N 37°57' E 023°37'0 0.0
2017-Sep-17 15:00N 37°57' E 023°37'0 0.0
2017-Sep-17 14:30N 37°57' E 023°37'0 0.0
2017-Sep-17 14:00N 37°57' E 023°37'0 0.0
2017-Sep-17 13:30N 37°57' E 023°37'0 0.0
2017-Sep-17 13:00N 37°57' E 023°37'0 0.0
2017-Sep-17 12:30N 37°57' E 023°37'0 0.0
2017-Sep-17 12:00N 37°57' E 023°37'0 0.0
2017-Sep-17 11:30N 37°57' E 023°37'0 0.0
2017-Sep-17 11:00N 37°57' E 023°37'0 0.0
2017-Sep-17 10:30N 37°57' E 023°37'0 0.0
2017-Sep-17 10:00N 37°57' E 023°37'0 0.0
2017-Sep-17 09:30N 37°57' E 023°37'0 0.0
2017-Sep-17 09:00N 37°57' E 023°37'0 0.0
2017-Sep-17 08:30N 37°57' E 023°37'0 0.0
2017-Sep-17 08:00N 37°57' E 023°37'0 0.0
2017-Sep-17 07:30N 37°57' E 023°37'0 0.0
2017-Sep-17 07:00N 37°57' E 023°37'0 0.0
2017-Sep-17 06:30N 37°58' E 023°37'0 0.0
2017-Sep-17 06:00N 37°57' E 023°37'2 4.1
2017-Sep-17 05:30N 37°58' E 023°34'0 0.6
2017-Sep-17 05:00N 37°57' E 023°34'1 2.9
2017-Sep-17 04:30N 37°56' E 023°35'3 5.3
2017-Sep-17 04:00N 37°54' E 023°37'3 5.1
2017-Sep-17 03:30N 37°52' E 023°39'2 3.9
2017-Sep-17 03:00N 37°50' E 023°40'2 4.0
2017-Sep-17 02:30N 37°49' E 023°41'3 5.9
2017-Sep-17 02:00N 37°46' E 023°43'3 5.8
2017-Sep-17 01:30N 37°43' E 023°45'4 5.6
2017-Sep-17 00:47N 37°40' E 023°48'47 5.3
2017-Sep-16 15:53N 37°24' E 024°44'2 4.1
2017-Sep-16 15:30N 37°23' E 024°46'2 4.1
2017-Sep-16 15:00N 37°23' E 024°48'2 4.0
2017-Sep-16 14:30N 37°22' E 024°50'2 4.2
2017-Sep-16 14:00N 37°21' E 024°52'2 4.5
2017-Sep-16 13:30N 37°20' E 024°55'2 4.6
2017-Sep-16 13:00N 37°20' E 024°58'2 4.6
2017-Sep-16 12:30N 37°20' E 025°01'4 4.7
2017-Sep-16 11:41N 37°20' E 025°06'1 4.6
2017-Sep-16 11:30N 37°21' E 025°07'2 4.4
2017-Sep-16 11:00N 37°21' E 025°10'2 4.2
2017-Sep-16 10:30N 37°21' E 025°12'2 4.3
2017-Sep-16 10:00N 37°21' E 025°15'3 5.2
2017-Sep-16 09:30N 37°22' E 025°18'3 5.8
2017-Sep-16 09:00N 37°23' E 025°21'3 5.8
2017-Sep-16 08:30N 37°24' E 025°25'3 6.1
2017-Sep-16 08:00N 37°25' E 025°28'3 6.0
2017-Sep-16 07:30N 37°27' E 025°31'2 4.5
2017-Sep-16 07:01N 37°28' E 025°34'4 5.6
2017-Sep-16 06:19N 37°27' E 025°39'5 6.1
2017-Sep-16 05:30N 37°25' E 025°44'4 6.7
2017-Sep-16 04:56N 37°26' E 025°49'3 6.5
2017-Sep-16 04:31N 37°25' E 025°52'15 0.3
2017-Sep-14 07:32N 37°11' E 025°48'0 9.0
2017-Sep-14 07:30N 37°11' E 025°48'4 8.9
2017-Sep-14 07:00N 37°12' E 025°43'7 9.0
2017-Sep-14 06:12N 37°14' E 025°34'3 8.5
2017-Sep-14 05:51N 37°14' E 025°30'3 8.5
2017-Sep-14 05:30N 37°15' E 025°27'4 8.8
2017-Sep-14 05:00N 37°15' E 025°21'4 8.6
2017-Sep-14 04:30N 37°16' E 025°16'4 9.0
2017-Sep-14 04:00N 37°17' E 025°10'5 8.9
2017-Sep-14 03:28N 37°18' E 025°04'4 8.8
2017-Sep-14 03:00N 37°19' E 024°59'4 8.9
2017-Sep-14 02:31N 37°20' E 024°54'4 8.9
2017-Sep-14 02:00N 37°21' E 024°49'49 9.0
2017-Sep-13 20:39N 37°40' E 023°52'3 9.2
2017-Sep-13 20:22N 37°41' E 023°50'3 9.1
2017-Sep-13 20:00N 37°44' E 023°47'4 9.0
2017-Sep-13 19:30N 37°47' E 023°43'4 8.9
2017-Sep-13 19:00N 37°51' E 023°40'5 9.1
2017-Sep-13 18:30N 37°55' E 023°37'2 4.6
2017-Sep-13 18:00N 37°57' E 023°36'0 0.0
2017-Sep-13 17:19N 37°57' E 023°36'0 0.0
2017-Sep-13 16:57N 37°57' E 023°36'1 1.3
2017-Sep-13 16:27N 37°57' E 023°37'0 0.0
2017-Sep-13 14:16N 37°57' E 023°37'0 0.0
2017-Sep-13 12:33N 37°57' E 023°37'0 0.0
2017-Sep-13 12:25N 37°57' E 023°37'1 1.4
2017-Sep-13 11:58N 37°57' E 023°36'0 0.0
2017-Sep-13 11:30N 37°57' E 023°36'0 0.0
2017-Sep-13 11:00N 37°57' E 023°36'0 0.0
2017-Sep-13 10:23N 37°57' E 023°36'0 0.0
2017-Sep-13 09:58N 37°57' E 023°36'0 0.0
2017-Sep-13 09:26N 37°57' E 023°36'0 0.0
2017-Sep-13 08:58N 37°57' E 023°36'3 6.2
2017-Sep-13 08:27N 37°59' E 023°33'4 8.0
2017-Sep-13 08:00N 38°02' E 023°32'1 2.9
2017-Sep-13 07:30N 38°01' E 023°33'0 0.6
2017-Sep-13 07:00N 38°00' E 023°33'3 6.3
2017-Sep-13 06:30N 37°57' E 023°33'2 4.4
2017-Sep-13 06:00N 37°57' E 023°36'0 0.0
2017-Sep-13 05:30N 37°57' E 023°36'0 0.0
2017-Sep-13 04:49N 37°57' E 023°36'0 0.2
2017-Sep-13 04:30N 37°57' E 023°36'0 0.4
2017-Sep-13 04:00N 37°57' E 023°36'1 0.1
2017-Sep-12 22:29N 37°57' E 023°37'0 0.0
2017-Sep-12 22:00N 37°58' E 023°37'0 0.0
2017-Sep-12 21:30N 37°57' E 023°37'0 0.0
2017-Sep-12 21:00N 37°57' E 023°37'0 0.0
2017-Sep-12 20:30N 37°57' E 023°37'0 0.0
2017-Sep-12 20:00N 37°57' E 023°37'0 0.0
2017-Sep-12 19:30N 37°57' E 023°37'0 0.0
2017-Sep-12 19:01N 37°57' E 023°37'0 0.0
2017-Sep-12 18:30N 37°57' E 023°37'0 0.0
2017-Sep-12 18:00N 37°57' E 023°37'0 0.0
2017-Sep-12 17:30N 37°57' E 023°37'1 1.5
2017-Sep-12 17:00N 37°57' E 023°36'0 0.2
2017-Sep-12 16:30N 37°57' E 023°36'1 1.6
2017-Sep-12 16:00N 37°57' E 023°37'0 0.0
2017-Sep-12 15:31N 37°57' E 023°37'0 0.0
2017-Sep-12 15:00N 37°57' E 023°37'3 5.1
2017-Sep-12 14:31N 37°57' E 023°34'1 2.7
2017-Sep-12 14:00N 37°57' E 023°35'1 1.6
2017-Sep-12 13:30N 37°57' E 023°36'1 1.0
2017-Sep-12 13:01N 37°57' E 023°37'0 0.0
2017-Sep-12 12:31N 37°58' E 023°37'0 0.0
2017-Sep-12 12:00N 37°57' E 023°37'0 0.0
2017-Sep-12 11:30N 37°57' E 023°37'1 1.2
2017-Sep-12 11:00N 37°57' E 023°36'0 0.0
2017-Sep-12 10:31N 37°57' E 023°36'0 0.0
2017-Sep-12 10:00N 37°57' E 023°36'1 2.8
2017-Sep-12 09:31N 37°57' E 023°35'4 7.1
2017-Sep-12 09:01N 38°00' E 023°33'2 3.6
2017-Sep-12 08:30N 38°02' E 023°32'0 0.0
2017-Sep-12 08:00N 38°02' E 023°32'0 0.0
2017-Sep-12 07:30N 38°02' E 023°32'0 0.0
2017-Sep-12 07:00N 38°02' E 023°32'0 0.0
2017-Sep-12 06:30N 38°02' E 023°32'0 0.0
2017-Sep-12 06:00N 38°02' E 023°32'0 0.6
2017-Sep-12 05:30N 38°02' E 023°33'1 1.4
2017-Sep-12 05:00N 38°01' E 023°32'1 1.2
2017-Sep-12 04:30N 38°01' E 023°33'4 7.1
2017-Sep-12 04:01N 37°57' E 023°34'2 4.2
2017-Sep-12 03:30N 37°57' E 023°37'0 0.0
2017-Sep-12 03:01N 37°57' E 023°37'0 0.0
2017-Sep-12 02:31N 37°57' E 023°37'0 0.0
2017-Sep-12 02:00N 37°57' E 023°37'0 0.0
2017-Sep-12 01:31N 37°57' E 023°37'0 0.0
2017-Sep-12 01:01N 37°57' E 023°37'0 0.0
2017-Sep-12 00:30N 37°57' E 023°37'0 0.0
2017-Sep-12 00:00N 37°57' E 023°37'0 0.0
2017-Sep-11 23:31N 37°57' E 023°37'0 0.0
2017-Sep-11 23:00N 37°57' E 023°37'0 0.0
2017-Sep-11 22:30N 37°57' E 023°37'0 0.0
2017-Sep-11 22:01N 37°58' E 023°37'0 0.0
2017-Sep-11 21:30N 37°57' E 023°37'0 0.0
2017-Sep-11 21:00N 37°57' E 023°37'0 0.0
2017-Sep-11 20:31N 37°57' E 023°37'0 0.0
2017-Sep-11 20:00N 37°57' E 023°37'0 0.0
2017-Sep-11 19:31N 37°57' E 023°37'0 0.0
2017-Sep-11 19:01N 37°57' E 023°37'0 0.0
2017-Sep-11 18:30N 37°57' E 023°37'0 0.0
2017-Sep-11 18:01N 37°57' E 023°37'0 0.0
2017-Sep-11 17:30N 37°57' E 023°37'0 0.0
2017-Sep-11 17:01N 37°57' E 023°37'0 0.0
2017-Sep-11 16:31N 37°57' E 023°37'0 0.0
2017-Sep-11 16:01N 37°57' E 023°37'0 0.0
2017-Sep-11 15:31N 37°57' E 023°37'0 0.0
2017-Sep-11 15:01N 37°57' E 023°37'0 0.0
2017-Sep-11 14:30N 37°57' E 023°37'0 0.0
2017-Sep-11 14:01N 37°57' E 023°37'0 0.0
2017-Sep-11 13:31N 37°57' E 023°37'0 0.0
2017-Sep-11 13:00N 37°57' E 023°37'0 0.0
2017-Sep-11 12:30N 37°57' E 023°37'0 0.0
2017-Sep-11 12:00N 37°57' E 023°37'3 6.1
2017-Sep-11 11:31N 37°58' E 023°33'4 8.7
2017-Sep-11 11:00N 38°02' E 023°32'0 0.3
2017-Sep-11 10:30N 38°02' E 023°32'0 0.0
2017-Sep-11 10:00N 38°02' E 023°32'0 0.0
2017-Sep-11 09:30N 38°02' E 023°32'0 0.0
2017-Sep-11 09:01N 38°02' E 023°32'0 0.0
2017-Sep-11 08:30N 38°02' E 023°32'0 0.0
2017-Sep-11 08:00N 38°02' E 023°32'0 0.0
2017-Sep-11 07:30N 38°02' E 023°32'0 0.0
2017-Sep-11 07:01N 38°02' E 023°32'0 0.0
2017-Sep-11 06:30N 38°02' E 023°32'0 0.0
2017-Sep-11 06:00N 38°02' E 023°32'1 1.9
2017-Sep-11 05:30N 38°01' E 023°32'  
Track history (hours):
 
Tides and Currents Weather Stations Pressure Air Temp Water Temp Dewpoint Dewpoint Depression Visibility Wind Speed Wind Dir Waves Ship Positions

Panther Z

Last reported at 2017-Sep-21 05:00 UTC. Time now 2017-Sep-21 05:28 UTC.
Position N 37°57' E 023°37'.

Length 30 m; draft 4 m.

Type: Tug. MMSI: 239842700.

Date/timePositionNaut miles runAvg speedWind from/ knotsBaromVisibWave heightAir tempDewpointWater temp
2017-Sep-21 05:00N 37°57' E 023°37'0 0.0
2017-Sep-21 04:30N 37°57' E 023°37'0 0.0
2017-Sep-21 04:00N 37°57' E 023°37'0 0.0
2017-Sep-21 03:30N 37°57' E 023°37'0 0.0
2017-Sep-21 03:00N 37°57' E 023°37'0 0.0
2017-Sep-21 02:30N 37°57' E 023°37'0 0.0
2017-Sep-21 02:01N 37°57' E 023°37'3 6.7
2017-Sep-21 01:30N 37°59' E 023°33'1 2.8
2017-Sep-21 01:01N 37°60' E 023°34'1 2.0
2017-Sep-21 00:30N 37°59' E 023°33'2 3.1
2017-Sep-21 00:00N 37°58' E 023°34'0 0.0
2017-Sep-20 23:30N 37°58' E 023°34'1 2.5
2017-Sep-20 23:00N 37°57' E 023°35'0 0.5
2017-Sep-20 22:30N 37°57' E 023°35'1 2.4
2017-Sep-20 22:00N 37°57' E 023°34'0 0.0
2017-Sep-20 21:30N 37°57' E 023°34'0 0.0
2017-Sep-20 21:00N 37°57' E 023°34'0 0.0
2017-Sep-20 20:30N 37°57' E 023°34'0 0.0
2017-Sep-20 20:00N 37°58' E 023°34'0 0.0
2017-Sep-20 19:30N 37°57' E 023°34'0 0.0
2017-Sep-20 19:00N 37°58' E 023°34'0 0.0
2017-Sep-20 18:30N 37°57' E 023°34'0 0.0
2017-Sep-20 18:00N 37°57' E 023°34'0 0.0
2017-Sep-20 17:30N 37°58' E 023°34'0 0.1
2017-Sep-20 17:01N 37°58' E 023°34'1 1.8
2017-Sep-20 16:30N 37°57' E 023°35'1 2.6
2017-Sep-20 16:00N 37°57' E 023°36'0 0.0
2017-Sep-20 15:30N 37°57' E 023°36'0 0.0
2017-Sep-20 15:00N 37°57' E 023°36'0 0.0
2017-Sep-20 14:00N 37°57' E 023°36'0 0.0
2017-Sep-20 13:30N 37°57' E 023°36'0 0.0
2017-Sep-20 13:00N 37°57' E 023°36'1 1.3
2017-Sep-20 12:30N 37°57' E 023°37'0 0.0
2017-Sep-20 12:00N 37°57' E 023°37'0 0.0
2017-Sep-20 11:30N 37°57' E 023°37'0 0.0
2017-Sep-20 11:00N 37°57' E 023°37'0 0.0
2017-Sep-20 10:30N 37°57' E 023°37'0 0.0
2017-Sep-20 10:00N 37°57' E 023°37'0 0.0
2017-Sep-20 09:30N 37°58' E 023°37'0 0.0
2017-Sep-20 09:00N 37°57' E 023°37'0 0.0
2017-Sep-20 08:30N 37°57' E 023°37'0 0.0
2017-Sep-20 08:00N 37°57' E 023°37'0 0.0
2017-Sep-20 07:30N 37°57' E 023°37'0 0.0
2017-Sep-20 07:00N 37°57' E 023°37'0 0.0
2017-Sep-20 06:30N 37°57' E 023°37'0 0.0
2017-Sep-20 06:00N 37°57' E 023°37'0 0.0
2017-Sep-20 05:30N 37°57' E 023°37'0 0.0
2017-Sep-20 05:00N 37°57' E 023°37'0 0.0
2017-Sep-20 04:30N 37°57' E 023°37'0 0.0
2017-Sep-20 04:00N 37°57' E 023°37'0 0.0
2017-Sep-20 03:30N 37°57' E 023°37'0 0.0
2017-Sep-20 03:00N 37°57' E 023°37'0 0.0
2017-Sep-20 02:30N 37°57' E 023°37'0 0.0
2017-Sep-20 02:00N 37°57' E 023°37'0 0.0
2017-Sep-20 01:30N 37°57' E 023°37'0 0.0
2017-Sep-20 01:00N 37°57' E 023°37'0 0.0
2017-Sep-20 00:30N 37°57' E 023°37'0 0.0
2017-Sep-20 00:00N 37°57' E 023°37'0 0.0
2017-Sep-19 23:30N 37°57' E 023°37'0 0.0
2017-Sep-19 23:00N 37°57' E 023°37'0 0.0
2017-Sep-19 22:30N 37°57' E 023°37'1 2.5
2017-Sep-19 22:00N 37°57' E 023°35'1 2.5
2017-Sep-19 21:30N 37°56' E 023°36'0 0.1
2017-Sep-19 21:00N 37°56' E 023°36'1 1.3
2017-Sep-19 20:30N 37°57' E 023°36'0 0.0
2017-Sep-19 20:00N 37°57' E 023°36'0 0.0
2017-Sep-19 19:30N 37°57' E 023°36'0 0.0
2017-Sep-19 19:00N 37°57' E 023°36'0 0.0
2017-Sep-19 18:30N 37°57' E 023°36'0 0.0
2017-Sep-19 18:00N 37°57' E 023°36'0 0.0
2017-Sep-19 17:30N 37°57' E 023°36'0 0.0
2017-Sep-19 17:00N 37°57' E 023°36'1 1.6
2017-Sep-19 16:30N 37°56' E 023°37'1 2.3
2017-Sep-19 16:00N 37°56' E 023°38'1 2.5
2017-Sep-19 15:30N 37°56' E 023°37'5 9.0
2017-Sep-19 15:00N 37°60' E 023°33'2 4.2
2017-Sep-19 14:31N 38°02' E 023°33'0 0.7
2017-Sep-19 14:00N 38°02' E 023°32'0 0.0
2017-Sep-19 13:30N 38°02' E 023°32'1 2.0
2017-Sep-19 13:00N 38°01' E 023°33'4 8.6
2017-Sep-19 12:30N 37°57' E 023°35'2 3.3
2017-Sep-19 12:00N 37°58' E 023°37'0 0.0
2017-Sep-19 11:30N 37°57' E 023°37'0 0.0
2017-Sep-19 11:00N 37°57' E 023°37'0 0.0
2017-Sep-19 10:30N 37°57' E 023°37'0 0.0
2017-Sep-19 10:00N 37°57' E 023°37'0 0.0
2017-Sep-19 09:30N 37°58' E 023°37'0 0.0
2017-Sep-19 09:00N 37°57' E 023°37'0 0.0
2017-Sep-19 08:30N 37°57' E 023°37'0 0.0
2017-Sep-19 08:00N 37°57' E 023°37'0 0.0
2017-Sep-19 07:30N 37°57' E 023°37'0 0.0
2017-Sep-19 07:00N 37°57' E 023°37'0 0.0
2017-Sep-19 06:30N 37°57' E 023°37'0 0.0
2017-Sep-19 06:00N 37°58' E 023°37'0 0.0
2017-Sep-19 05:30N 37°57' E 023°37'0 0.0
2017-Sep-19 05:00N 37°57' E 023°37'0 0.0
2017-Sep-19 04:30N 37°57' E 023°37'0 0.0
2017-Sep-19 04:00N 37°57' E 023°37'0 0.0
2017-Sep-19 03:30N 37°57' E 023°37'0 0.0
2017-Sep-19 03:00N 37°57' E 023°37'0 0.0
2017-Sep-19 02:30N 37°57' E 023°37'0 0.0
2017-Sep-19 02:00N 37°58' E 023°37'0 0.0
2017-Sep-19 01:30N 37°57' E 023°37'0 0.0
2017-Sep-19 01:00N 37°57' E 023°37'0 0.0
2017-Sep-19 00:30N 37°57' E 023°37'0 0.0
2017-Sep-19 00:00N 37°57' E 023°37'0 0.0
2017-Sep-18 23:30N 37°58' E 023°37'0 0.0
2017-Sep-18 23:00N 37°57' E 023°37'0 0.0
2017-Sep-18 22:30N 37°57' E 023°37'0 0.0
2017-Sep-18 22:00N 37°57' E 023°37'0 0.0
2017-Sep-18 21:30N 37°57' E 023°37'0 0.0
2017-Sep-18 21:00N 37°57' E 023°37'0 0.0
2017-Sep-18 20:30N 37°57' E 023°37'0 0.0
2017-Sep-18 20:00N 37°57' E 023°37'0 0.0
2017-Sep-18 19:30N 37°57' E 023°37'0 0.0
2017-Sep-18 19:00N 37°57' E 023°37'0 0.0
2017-Sep-18 18:30N 37°57' E 023°37'0 0.0
2017-Sep-18 18:00N 37°57' E 023°37'0 0.0
2017-Sep-18 17:30N 37°57' E 023°37'0 0.0
2017-Sep-18 17:00N 37°57' E 023°37'1 2.6
2017-Sep-18 16:30N 37°56' E 023°37'1 1.1
2017-Sep-18 16:00N 37°56' E 023°38'0 0.0
2017-Sep-18 15:30N 37°56' E 023°38'0 0.0
2017-Sep-18 15:00N 37°56' E 023°38'2 3.9
2017-Sep-18 14:30N 37°57' E 023°36'1 1.6
2017-Sep-18 14:00N 37°57' E 023°37'0 0.0
2017-Sep-18 13:30N 37°57' E 023°37'0 0.0
2017-Sep-18 13:00N 37°57' E 023°37'0 0.0
2017-Sep-18 12:30N 37°57' E 023°37'0 0.0
2017-Sep-18 12:00N 37°57' E 023°37'0 0.0
2017-Sep-18 11:30N 37°57' E 023°37'0 0.0
2017-Sep-18 11:00N 37°57' E 023°37'0 0.0
2017-Sep-18 10:30N 37°57' E 023°37'0 0.0
2017-Sep-18 10:00N 37°57' E 023°37'0 0.0
2017-Sep-18 09:30N 37°57' E 023°37'0 0.0
2017-Sep-18 09:00N 37°57' E 023°37'0 0.0
2017-Sep-18 08:30N 37°57' E 023°37'0 0.0
2017-Sep-18 08:00N 37°57' E 023°37'0 0.0
2017-Sep-18 07:30N 37°57' E 023°37'0 0.0
2017-Sep-18 07:00N 37°57' E 023°37'0 0.0
2017-Sep-18 06:30N 37°58' E 023°37'0 0.0
2017-Sep-18 06:00N 37°58' E 023°37'0 0.0
2017-Sep-18 05:30N 37°57' E 023°37'0 0.0
2017-Sep-18 05:00N 37°57' E 023°37'0 0.0
2017-Sep-18 04:30N 37°57' E 023°37'0 0.0
2017-Sep-18 04:00N 37°57' E 023°37'0 0.0
2017-Sep-18 03:30N 37°57' E 023°37'0 0.0
2017-Sep-18 03:00N 37°57' E 023°37'0 0.0
2017-Sep-18 02:30N 37°57' E 023°37'0 0.0
2017-Sep-18 02:00N 37°57' E 023°37'0 0.0
2017-Sep-18 01:30N 37°57' E 023°37'0 0.0
2017-Sep-18 01:00N 37°57' E 023°37'0 0.0
2017-Sep-18 00:30N 37°58' E 023°37'0 0.0
2017-Sep-18 00:00N 37°57' E 023°37'0 0.0
2017-Sep-17 23:30N 37°57' E 023°37'0 0.0
2017-Sep-17 23:00N 37°57' E 023°37'0 0.0
2017-Sep-17 22:30N 37°57' E 023°37'0 0.0
2017-Sep-17 22:00N 37°57' E 023°37'0 0.0
2017-Sep-17 21:30N 37°57' E 023°37'0 0.0
2017-Sep-17 21:00N 37°57' E 023°37'0 0.0
2017-Sep-17 20:30N 37°57' E 023°37'0 0.0
2017-Sep-17 20:00N 37°57' E 023°37'0 0.0
2017-Sep-17 19:30N 37°57' E 023°37'0 0.0
2017-Sep-17 19:00N 37°58' E 023°37'0 0.0
2017-Sep-17 18:30N 37°57' E 023°37'0 0.0
2017-Sep-17 18:00N 37°57' E 023°37'0 0.0
2017-Sep-17 17:30N 37°57' E 023°37'0 0.0
2017-Sep-17 17:00N 37°57' E 023°37'0 0.0
2017-Sep-17 16:30N 37°57' E 023°37'0 0.0
2017-Sep-17 16:00N 37°57' E 023°37'0 0.0
2017-Sep-17 15:30N 37°57' E 023°37'0 0.0
2017-Sep-17 15:00N 37°57' E 023°37'0 0.0
2017-Sep-17 14:30N 37°57' E 023°37'0 0.0
2017-Sep-17 14:00N 37°57' E 023°37'0 0.0
2017-Sep-17 13:30N 37°57' E 023°37'0 0.0
2017-Sep-17 13:00N 37°57' E 023°37'0 0.0
2017-Sep-17 12:30N 37°57' E 023°37'0 0.0
2017-Sep-17 12:00N 37°57' E 023°37'0 0.0
2017-Sep-17 11:30N 37°57' E 023°37'0 0.0
2017-Sep-17 11:00N 37°57' E 023°37'0 0.0
2017-Sep-17 10:30N 37°57' E 023°37'0 0.0
2017-Sep-17 10:00N 37°57' E 023°37'0 0.0
2017-Sep-17 09:30N 37°57' E 023°37'0 0.0
2017-Sep-17 09:00N 37°57' E 023°37'0 0.0
2017-Sep-17 08:30N 37°57' E 023°37'0 0.0
2017-Sep-17 08:00N 37°57' E 023°37'0 0.0
2017-Sep-17 07:30N 37°57' E 023°37'0 0.0
2017-Sep-17 07:00N 37°57' E 023°37'0 0.0
2017-Sep-17 06:30N 37°58' E 023°37'0 0.0
2017-Sep-17 06:00N 37°57' E 023°37'2 4.1
2017-Sep-17 05:30N 37°58' E 023°34'0 0.6
2017-Sep-17 05:00N 37°57' E 023°34'1 2.9
2017-Sep-17 04:30N 37°56' E 023°35'3 5.3
2017-Sep-17 04:00N 37°54' E 023°37'3 5.1
2017-Sep-17 03:30N 37°52' E 023°39'2 3.9
2017-Sep-17 03:00N 37°50' E 023°40'2 4.0
2017-Sep-17 02:30N 37°49' E 023°41'3 5.9
2017-Sep-17 02:00N 37°46' E 023°43'3 5.8
2017-Sep-17 01:30N 37°43' E 023°45'4 5.6
2017-Sep-17 00:47N 37°40' E 023°48'47 5.3
2017-Sep-16 15:53N 37°24' E 024°44'2 4.1
2017-Sep-16 15:30N 37°23' E 024°46'2 4.1
2017-Sep-16 15:00N 37°23' E 024°48'2 4.0
2017-Sep-16 14:30N 37°22' E 024°50'2 4.2
2017-Sep-16 14:00N 37°21' E 024°52'2 4.5
2017-Sep-16 13:30N 37°20' E 024°55'2 4.6
2017-Sep-16 13:00N 37°20' E 024°58'2 4.6
2017-Sep-16 12:30N 37°20' E 025°01'4 4.7
2017-Sep-16 11:41N 37°20' E 025°06'1 4.6
2017-Sep-16 11:30N 37°21' E 025°07'2 4.4
2017-Sep-16 11:00N 37°21' E 025°10'2 4.2
2017-Sep-16 10:30N 37°21' E 025°12'2 4.3
2017-Sep-16 10:00N 37°21' E 025°15'3 5.2
2017-Sep-16 09:30N 37°22' E 025°18'3 5.8
2017-Sep-16 09:00N 37°23' E 025°21'3 5.8
2017-Sep-16 08:30N 37°24' E 025°25'3 6.1
2017-Sep-16 08:00N 37°25' E 025°28'3 6.0
2017-Sep-16 07:30N 37°27' E 025°31'2 4.5
2017-Sep-16 07:01N 37°28' E 025°34'4 5.6
2017-Sep-16 06:19N 37°27' E 025°39'5 6.1
2017-Sep-16 05:30N 37°25' E 025°44'4 6.7
2017-Sep-16 04:56N 37°26' E 025°49'3 6.5
2017-Sep-16 04:31N 37°25' E 025°52'15 0.3
2017-Sep-14 07:32N 37°11' E 025°48'0 9.0
2017-Sep-14 07:30N 37°11' E 025°48'4 8.9
2017-Sep-14 07:00N 37°12' E 025°43'7 9.0
2017-Sep-14 06:12N 37°14' E 025°34'3 8.5
2017-Sep-14 05:51N 37°14' E 025°30'3 8.5
2017-Sep-14 05:30N 37°15' E 025°27'4 8.8
2017-Sep-14 05:00N 37°15' E 025°21'4 8.6
2017-Sep-14 04:30N 37°16' E 025°16'4 9.0
2017-Sep-14 04:00N 37°17' E 025°10'5 8.9
2017-Sep-14 03:28N 37°18' E 025°04'4 8.8
2017-Sep-14 03:00N 37°19' E 024°59'4 8.9
2017-Sep-14 02:31N 37°20' E 024°54'4 8.9
2017-Sep-14 02:00N 37°21' E 024°49'49 9.0
2017-Sep-13 20:39N 37°40' E 023°52'3 9.2
2017-Sep-13 20:22N 37°41' E 023°50'3 9.1
2017-Sep-13 20:00N 37°44' E 023°47'4 9.0
2017-Sep-13 19:30N 37°47' E 023°43'4 8.9
2017-Sep-13 19:00N 37°51' E 023°40'5 9.1
2017-Sep-13 18:30N 37°55' E 023°37'2 4.6
2017-Sep-13 18:00N 37°57' E 023°36'0 0.0
2017-Sep-13 17:19N 37°57' E 023°36'0 0.0
2017-Sep-13 16:57N 37°57' E 023°36'1 1.3
2017-Sep-13 16:27N 37°57' E 023°37'0 0.0
2017-Sep-13 14:16N 37°57' E 023°37'0 0.0
2017-Sep-13 12:33N 37°57' E 023°37'0 0.0
2017-Sep-13 12:25N 37°57' E 023°37'1 1.4
2017-Sep-13 11:58N 37°57' E 023°36'0 0.0
2017-Sep-13 11:30N 37°57' E 023°36'0 0.0
2017-Sep-13 11:00N 37°57' E 023°36'0 0.0
2017-Sep-13 10:23N 37°57' E 023°36'0 0.0
2017-Sep-13 09:58N 37°57' E 023°36'0 0.0
2017-Sep-13 09:26N 37°57' E 023°36'0 0.0
2017-Sep-13 08:58N 37°57' E 023°36'3 6.2
2017-Sep-13 08:27N 37°59' E 023°33'4 8.0
2017-Sep-13 08:00N 38°02' E 023°32'1 2.9
2017-Sep-13 07:30N 38°01' E 023°33'0 0.6
2017-Sep-13 07:00N 38°00' E 023°33'3 6.3
2017-Sep-13 06:30N 37°57' E 023°33'2 4.4
2017-Sep-13 06:00N 37°57' E 023°36'0 0.0
2017-Sep-13 05:30N 37°57' E 023°36'0 0.0
2017-Sep-13 04:49N 37°57' E 023°36'0 0.2
2017-Sep-13 04:30N 37°57' E 023°36'0 0.4
2017-Sep-13 04:00N 37°57' E 023°36'1 0.1
2017-Sep-12 22:29N 37°57' E 023°37'0 0.0
2017-Sep-12 22:00N 37°58' E 023°37'0 0.0
2017-Sep-12 21:30N 37°57' E 023°37'0 0.0
2017-Sep-12 21:00N 37°57' E 023°37'0 0.0
2017-Sep-12 20:30N 37°57' E 023°37'0 0.0
2017-Sep-12 20:00N 37°57' E 023°37'0 0.0
2017-Sep-12 19:30N 37°57' E 023°37'0 0.0
2017-Sep-12 19:01N 37°57' E 023°37'0 0.0
2017-Sep-12 18:30N 37°57' E 023°37'0 0.0
2017-Sep-12 18:00N 37°57' E 023°37'0 0.0
2017-Sep-12 17:30N 37°57' E 023°37'1 1.5
2017-Sep-12 17:00N 37°57' E 023°36'0 0.2
2017-Sep-12 16:30N 37°57' E 023°36'1 1.6
2017-Sep-12 16:00N 37°57' E 023°37'0 0.0
2017-Sep-12 15:31N 37°57' E 023°37'0 0.0
2017-Sep-12 15:00N 37°57' E 023°37'3 5.1
2017-Sep-12 14:31N 37°57' E 023°34'1 2.7
2017-Sep-12 14:00N 37°57' E 023°35'1 1.6
2017-Sep-12 13:30N 37°57' E 023°36'1 1.0
2017-Sep-12 13:01N 37°57' E 023°37'0 0.0
2017-Sep-12 12:31N 37°58' E 023°37'0 0.0
2017-Sep-12 12:00N 37°57' E 023°37'0 0.0
2017-Sep-12 11:30N 37°57' E 023°37'1 1.2
2017-Sep-12 11:00N 37°57' E 023°36'0 0.0
2017-Sep-12 10:31N 37°57' E 023°36'0 0.0
2017-Sep-12 10:00N 37°57' E 023°36'1 2.8
2017-Sep-12 09:31N 37°57' E 023°35'4 7.1
2017-Sep-12 09:01N 38°00' E 023°33'2 3.6
2017-Sep-12 08:30N 38°02' E 023°32'0 0.0
2017-Sep-12 08:00N 38°02' E 023°32'0 0.0
2017-Sep-12 07:30N 38°02' E 023°32'0 0.0
2017-Sep-12 07:00N 38°02' E 023°32'0 0.0
2017-Sep-12 06:30N 38°02' E 023°32'0 0.0
2017-Sep-12 06:00N 38°02' E 023°32'0 0.6
2017-Sep-12 05:30N 38°02' E 023°33'1 1.4
2017-Sep-12 05:00N 38°01' E 023°32'1 1.2
2017-Sep-12 04:30N 38°01' E 023°33'4 7.1
2017-Sep-12 04:01N 37°57' E 023°34'2 4.2
2017-Sep-12 03:30N 37°57' E 023°37'0 0.0
2017-Sep-12 03:01N 37°57' E 023°37'0 0.0
2017-Sep-12 02:31N 37°57' E 023°37'0 0.0
2017-Sep-12 02:00N 37°57' E 023°37'0 0.0
2017-Sep-12 01:31N 37°57' E 023°37'0 0.0
2017-Sep-12 01:01N 37°57' E 023°37'0 0.0
2017-Sep-12 00:30N 37°57' E 023°37'0 0.0
2017-Sep-12 00:00N 37°57' E 023°37'0 0.0
2017-Sep-11 23:31N 37°57' E 023°37'0 0.0
2017-Sep-11 23:00N 37°57' E 023°37'0 0.0
2017-Sep-11 22:30N 37°57' E 023°37'0 0.0
2017-Sep-11 22:01N 37°58' E 023°37'0 0.0
2017-Sep-11 21:30N 37°57' E 023°37'0 0.0
2017-Sep-11 21:00N 37°57' E 023°37'0 0.0
2017-Sep-11 20:31N 37°57' E 023°37'0 0.0
2017-Sep-11 20:00N 37°57' E 023°37'0 0.0
2017-Sep-11 19:31N 37°57' E 023°37'0 0.0
2017-Sep-11 19:01N 37°57' E 023°37'0 0.0
2017-Sep-11 18:30N 37°57' E 023°37'0 0.0
2017-Sep-11 18:01N 37°57' E 023°37'0 0.0
2017-Sep-11 17:30N 37°57' E 023°37'0 0.0
2017-Sep-11 17:01N 37°57' E 023°37'0 0.0
2017-Sep-11 16:31N 37°57' E 023°37'0 0.0
2017-Sep-11 16:01N 37°57' E 023°37'0 0.0
2017-Sep-11 15:31N 37°57' E 023°37'0 0.0
2017-Sep-11 15:01N 37°57' E 023°37'0 0.0
2017-Sep-11 14:30N 37°57' E 023°37'0 0.0
2017-Sep-11 14:01N 37°57' E 023°37'0 0.0
2017-Sep-11 13:31N 37°57' E 023°37'0 0.0
2017-Sep-11 13:00N 37°57' E 023°37'0 0.0
2017-Sep-11 12:30N 37°57' E 023°37'0 0.0
2017-Sep-11 12:00N 37°57' E 023°37'3 6.1
2017-Sep-11 11:31N 37°58' E 023°33'4 8.7
2017-Sep-11 11:00N 38°02' E 023°32'0 0.3
2017-Sep-11 10:30N 38°02' E 023°32'0 0.0
2017-Sep-11 10:00N 38°02' E 023°32'0 0.0
2017-Sep-11 09:30N 38°02' E 023°32'0 0.0
2017-Sep-11 09:01N 38°02' E 023°32'0 0.0
2017-Sep-11 08:30N 38°02' E 023°32'0 0.0
2017-Sep-11 08:00N 38°02' E 023°32'0 0.0
2017-Sep-11 07:30N 38°02' E 023°32'0 0.0
2017-Sep-11 07:01N 38°02' E 023°32'0 0.0
2017-Sep-11 06:30N 38°02' E 023°32'0 0.0
2017-Sep-11 06:00N 38°02' E 023°32'1 1.9
2017-Sep-11 05:30N 38°01' E 023°32'  

Dump ship's entire track history